»·PEaware :: N1947L NONE-KSAC

N1947L :: NONE-KSAC

FLIGHT INFORMATION

Flight Status: Arrived
Operator: Privately registered:
United States
More flights under this callsign
Pilot: Mark S. (16827)
Aircraft: CESSNA 172 SKYHAWK
(C172)
More flights by this aircraft type
Origin: NONE
Destination: KSAC Sacramento Executive
United States
More flights between these airports :: More routes between these airports
Route: +
File this flight plan on PilotEdge
Remarks:
Altitude:
(Current/Filed)
5,500ft
Speed:
(Current/Filed)
0kts
Departed: 04-Sep-18 07:32 PM
Arrived: 04-Sep-18 08:23 PM
Distance/Time
Traveled:
Not Available
Distance/Time
To Go:
Arrived

Flight Plot

Page will automatically refresh every two minutes.

Flight plan parsing failed; only flown route is shown


Map Options




Map Legend


Flown Route
Filed Route
Departure Airport
Arrival Airport
Navaid (VOR, NDB)
Fix

Horizontal Profiles

Position Reports

Time Latitude Longitude Heading Altitude Ground
Speed
04-Sep-18 19:32 37.177282 -121.652072 335 4763ft 79kts
04-Sep-18 19:33 37.197331 -121.663694 334 5351ft 80kts
04-Sep-18 19:34 37.221515 -121.677593 334 5501ft 115kts
04-Sep-18 19:35 37.251037 -121.694538 334 5500ft 117kts
04-Sep-18 19:36 37.280816 -121.711733 334 5500ft 118kts
04-Sep-18 19:37 37.310669 -121.729008 334 5499ft 117kts
04-Sep-18 19:38 37.340147 -121.746083 334 5499ft 117kts
04-Sep-18 19:39 37.369673 -121.763195 334 5499ft 117kts
04-Sep-18 19:40 37.399215 -121.780331 334 5499ft 117kts
04-Sep-18 19:41 37.428709 -121.797453 334 5499ft 117kts
04-Sep-18 19:42 37.458114 -121.814539 334 5499ft 117kts
04-Sep-18 19:43 37.488942 -121.821820 3 5499ft 116kts
04-Sep-18 19:44 37.521297 -121.818775 4 5499ft 117kts
04-Sep-18 19:45 37.553713 -121.815564 4 5499ft 117kts
04-Sep-18 19:46 37.586090 -121.812340 4 5499ft 117kts
04-Sep-18 19:47 37.612666 -121.794198 54 5499ft 116kts
04-Sep-18 19:48 37.627962 -121.765800 55 6173ft 87kts
04-Sep-18 19:49 37.641366 -121.740111 56 6703ft 88kts
04-Sep-18 19:51 37.654765 -121.713981 56 7214ft 89kts
04-Sep-18 19:52 37.668840 -121.686301 56 7502ft 107kts
04-Sep-18 19:53 37.686376 -121.651563 56 7500ft 121kts
04-Sep-18 19:54 37.704658 -121.615382 56 7499ft 123kts
04-Sep-18 19:55 37.723141 -121.578808 56 7499ft 124kts
04-Sep-18 19:56 37.741672 -121.542096 56 7499ft 123kts
04-Sep-18 19:57 37.759894 -121.505980 56 7499ft 121kts
04-Sep-18 19:58 37.778065 -121.469936 56 7499ft 121kts
04-Sep-18 19:59 37.796198 -121.434034 56 7498ft 121kts
04-Sep-18 20:00 37.814820 -121.398538 46 7500ft 121kts
04-Sep-18 20:01 37.843216 -121.378352 12 7500ft 121kts
04-Sep-18 20:02 37.875989 -121.368584 12 7499ft 121kts
04-Sep-18 20:03 37.909588 -121.366228 1 7499ft 121kts
04-Sep-18 20:04 37.943235 -121.364548 1 7499ft 121kts
04-Sep-18 20:05 37.976900 -121.363469 0 7499ft 121kts
04-Sep-18 20:06 38.010609 -121.362310 0 7499ft 121kts
04-Sep-18 20:07 38.044259 -121.361140 0 7499ft 121kts
04-Sep-18 20:08 38.077896 -121.359968 0 7499ft 121kts
04-Sep-18 20:09 38.110247 -121.365408 345 7499ft 121kts
04-Sep-18 20:10 38.142895 -121.375754 345 7499ft 121kts
04-Sep-18 20:11 38.176558 -121.386397 345 7265ft 129kts
04-Sep-18 20:12 38.210679 -121.397168 345 6766ft 125kts
04-Sep-18 20:13 38.244493 -121.407911 345 6264ft 124kts
04-Sep-18 20:14 38.277005 -121.418242 345 5761ft 116kts
04-Sep-18 20:15 38.308242 -121.428192 345 5261ft 116kts
04-Sep-18 20:16 38.340079 -121.438322 345 4483ft 120kts
04-Sep-18 20:17 38.371999 -121.448498 345 3536ft 114kts
04-Sep-18 20:18 38.400720 -121.457680 345 2868ft 110kts
04-Sep-18 20:19 38.431815 -121.467615 345 2042ft 121kts
04-Sep-18 20:20 38.464810 -121.479111 340 1123ft 118kts
04-Sep-18 20:21 38.491666 -121.487593 23 1097ft 91kts
04-Sep-18 20:22 38.513321 -121.471390 27 1102ft 77kts
04-Sep-18 20:23 38.528505 -121.478016 259 559ft 68kts
04-Sep-18 20:24 38.515116 -121.492468 211 26ft 48kts
04-Sep-18 20:25 38.513535 -121.495045 268 24ft 0kts
04-Sep-18 20:26 38.513535 -121.495072 267 24ft 2kts
04-Sep-18 20:27 38.513665 -121.497635 184 24ft 0kts
04-Sep-18 20:28 38.513665 -121.497635 185 24ft 0kts
04-Sep-18 20:29 38.513665 -121.497635 184 24ft 0kts
04-Sep-18 20:30 38.513665 -121.497635 184 24ft 0kts
04-Sep-18 20:31 38.513665 -121.497635 184 24ft 0kts
04-Sep-18 20:32 38.513665 -121.497635 184 24ft 0kts
04-Sep-18 20:33 38.513665 -121.497635 184 24ft 0kts
04-Sep-18 20:34 38.513665 -121.497635 184 24ft 0kts
04-Sep-18 20:35 38.513665 -121.497635 184 24ft 0kts
04-Sep-18 20:36 38.513665 -121.497635 184 24ft 0kts
04-Sep-18 20:37 38.513665 -121.497635 184 24ft 0kts
04-Sep-18 20:38 38.513665 -121.497635 184 24ft 0kts
04-Sep-18 20:39 38.513665 -121.497635 184 24ft 0kts

Navigation Log

Ident Type
Flight plan parsing failed, navigation log unavailable